Time;durP1;ratioP1;P1;durP2;ratioP2;P2;SDS_P1;SDS_P2;PMS_P1;PMS_P2;Temp;Humidity;BMP_temperature;BMP_pressure;BME280_temperature;BME280_humidity;BME280_pressure;Samples;Min_cycle;Max_cycle;Signal;HPM_P1;HPM_P2
2023/05/29 00:01:40;;;;;;;4.78;3.90;;;21.60;46.40;;;;;;5016025;28;20189;-53
2023/05/29 00:04:08;;;;;;;4.32;3.72;;;21.60;46.70;;;;;;4998215;28;20201;-53
2023/05/29 00:06:36;;;;;;;4.47;3.95;;;21.60;46.80;;;;;;5015815;28;20216;-54
2023/05/29 00:09:05;;;;;;;4.85;4.07;;;21.60;46.70;;;;;;5016106;28;20196;-54
2023/05/29 00:11:31;;;;;;;4.90;3.85;;;21.60;46.50;;;;;;4998249;28;20251;-54
2023/05/29 00:13:59;;;;;;;4.82;4.22;;;21.60;46.70;;;;;;5015846;28;20276;-54
2023/05/29 00:16:26;;;;;;;4.32;3.92;;;21.50;47.10;;;;;;5015692;28;20243;-54
2023/05/29 00:18:53;;;;;;;4.65;4.00;;;21.50;46.70;;;;;;4998106;28;20205;-54
2023/05/29 00:21:21;;;;;;;4.47;3.95;;;21.50;46.70;;;;;;4998064;28;20197;-54
2023/05/29 00:23:48;;;;;;;4.95;3.70;;;21.50;46.90;;;;;;4997762;28;20216;-54
2023/05/29 00:26:17;;;;;;;4.45;4.05;;;21.50;47.00;;;;;;5014905;28;20217;-54
2023/05/29 00:28:48;;;;;;;4.57;4.07;;;21.50;46.90;;;;;;4998100;28;20204;-54
2023/05/29 00:31:15;;;;;;;4.30;3.90;;;21.40;46.90;;;;;;5015442;28;20650;-54
2023/05/29 00:33:42;;;;;;;4.60;4.13;;;21.40;46.90;;;;;;4997692;28;20669;-53
2023/05/29 00:36:10;;;;;;;6.00;4.00;;;21.40;46.90;;;;;;4997610;28;20320;-53
2023/05/29 00:38:38;;;;;;;5.05;4.03;;;21.40;46.90;;;;;;4997606;28;20215;-53
2023/05/29 00:41:05;;;;;;;4.18;3.78;;;21.40;46.90;;;;;;5015149;28;20207;-53
2023/05/29 00:43:33;;;;;;;4.47;3.67;;;21.40;47.30;;;;;;5014969;28;20200;-54
2023/05/29 00:46:01;;;;;;;4.25;3.63;;;21.40;46.90;;;;;;4997463;28;20263;-53
2023/05/29 00:48:28;;;;;;;4.28;3.70;;;21.30;46.80;;;;;;4997468;28;20192;-53
2023/05/29 00:50:55;;;;;;;4.43;3.83;;;21.30;47.00;;;;;;5015244;28;20551;-53
2023/05/29 00:53:22;;;;;;;4.10;3.70;;;21.30;47.20;;;;;;4997340;28;20255;-53
2023/05/29 00:55:50;;;;;;;4.35;3.95;;;21.30;47.40;;;;;;4997265;28;20719;-53
2023/05/29 00:58:17;;;;;;;4.18;3.78;;;21.30;47.30;;;;;;4997344;28;20296;-53
2023/05/29 01:00:45;;;;;;;4.38;3.97;;;21.30;47.10;;;;;;4997229;28;20208;-54
2023/05/29 01:03:14;;;;;;;5.35;4.07;;;21.20;47.20;;;;;;4997197;28;20208;-53
2023/05/29 01:05:41;;;;;;;4.15;3.75;;;21.20;47.20;;;;;;4997782;28;20228;-53
2023/05/29 01:08:08;;;;;;;4.05;3.65;;;21.20;47.10;;;;;;4997124;28;20201;-53
2023/05/29 01:10:36;;;;;;;5.60;3.55;;;21.20;47.30;;;;;;4996976;28;20710;-53
2023/05/29 01:13:07;;;;;;;4.75;3.80;;;21.20;47.40;;;;;;4996990;28;20196;-53
2023/05/29 01:15:38;;;;;;;4.10;3.75;;;21.20;47.40;;;;;;5014660;28;20205;-53
2023/05/29 01:18:17;;;;;;;4.45;4.05;;;21.20;47.60;;;;;;4996942;28;20638;-53
2023/05/29 01:20:48;;;;;;;4.88;3.78;;;21.20;47.60;;;;;;4997154;28;20537;-53
2023/05/29 01:23:28;;;;;;;4.45;4.05;;;21.10;47.60;;;;;;5014514;28;20193;-53
2023/05/29 01:26:06;;;;;;;5.03;3.90;;;21.10;47.60;;;;;;5014492;28;20673;-53
2023/05/29 01:28:37;;;;;;;4.10;3.70;;;21.10;47.80;;;;;;5014771;28;20645;-53
2023/05/29 01:31:04;;;;;;;3.97;3.58;;;21.10;47.80;;;;;;4996674;28;20545;-53
2023/05/29 01:33:31;;;;;;;4.10;3.50;;;21.10;47.60;;;;;;5014419;28;20184;-53
2023/05/29 01:35:59;;;;;;;4.30;3.60;;;21.10;47.70;;;;;;4996458;28;20708;-53
2023/05/29 01:38:26;;;;;;;4.47;3.75;;;21.10;47.80;;;;;;4996618;28;20528;-53
2023/05/29 01:40:53;;;;;;;4.18;3.78;;;21.10;47.80;;;;;;4996358;28;20721;-53
2023/05/29 01:43:20;;;;;;;4.30;3.88;;;21.00;47.80;;;;;;4996446;28;20598;-53
2023/05/29 01:45:52;;;;;;;6.18;4.00;;;21.00;47.80;;;;;;4996225;28;20213;-53
2023/05/29 01:48:20;;;;;;;3.72;3.42;;;21.00;48.00;;;;;;4996399;28;20201;-53
2023/05/29 01:50:47;;;;;;;4.28;3.85;;;21.00;47.80;;;;;;4996646;28;20657;-53
2023/05/29 01:53:14;;;;;;;4.60;3.63;;;21.00;48.60;;;;;;4997203;28;20207;-53
2023/05/29 01:55:41;;;;;;;4.85;4.00;;;21.00;48.10;;;;;;5013759;28;20205;-53
2023/05/29 01:58:09;;;;;;;4.03;3.63;;;21.00;48.00;;;;;;4996233;28;20605;-53
2023/05/29 02:00:38;;;;;;;4.10;3.65;;;21.00;47.90;;;;;;4996714;28;20200;-53
2023/05/29 02:03:07;;;;;;;3.90;3.50;;;20.90;47.90;;;;;;4996262;28;20201;-53
2023/05/29 02:05:34;;;;;;;4.15;3.50;;;20.90;48.00;;;;;;4996869;28;20232;-53
2023/05/29 02:08:01;;;;;;;4.63;3.60;;;20.90;48.00;;;;;;4996431;28;20246;-53
2023/05/29 02:10:29;;;;;;;4.72;3.60;;;20.90;48.00;;;;;;4996250;28;20287;-53
2023/05/29 02:12:57;;;;;;;4.55;3.65;;;20.90;48.10;;;;;;4997127;28;20692;-53
2023/05/29 02:15:24;;;;;;;4.38;3.97;;;20.90;48.10;;;;;;4995426;28;20308;-54
2023/05/29 02:17:52;;;;;;;5.03;3.60;;;20.90;48.30;;;;;;4995870;28;20263;-54
2023/05/29 02:20:21;;;;;;;4.50;4.10;;;20.90;48.20;;;;;;4995764;28;20197;-54
2023/05/29 02:22:48;;;;;;;4.60;3.70;;;20.80;48.10;;;;;;4995768;28;20654;-54
2023/05/29 02:25:15;;;;;;;4.90;4.15;;;20.90;48.20;;;;;;4995531;28;20221;-54
2023/05/29 02:27:43;;;;;;;4.18;3.78;;;20.80;48.10;;;;;;5013307;28;20247;-54
2023/05/29 02:30:11;;;;;;;4.00;3.60;;;20.80;48.10;;;;;;4995728;28;20564;-54
2023/05/29 02:32:38;;;;;;;5.13;3.70;;;20.80;48.10;;;;;;4995721;28;20189;-53
2023/05/29 02:35:07;;;;;;;4.47;3.40;;;20.80;48.20;;;;;;4996599;28;20303;-54
2023/05/29 02:37:36;;;;;;;3.78;3.47;;;20.80;48.20;;;;;;4995581;28;20688;-54
2023/05/29 02:40:04;;;;;;;4.03;3.60;;;20.70;48.20;;;;;;5013245;28;20196;-54
2023/05/29 02:42:32;;;;;;;4.35;3.95;;;20.70;48.00;;;;;;4995464;28;20658;-54
2023/05/29 02:44:58;;;;;;;4.20;3.80;;;20.70;48.70;;;;;;4995405;28;20224;-54
2023/05/29 02:47:26;;;;;;;4.78;3.60;;;20.70;48.20;;;;;;5014350;28;20302;-54
2023/05/29 02:49:53;;;;;;;3.70;3.40;;;20.70;48.30;;;;;;5019601;28;20189;-54
2023/05/29 02:52:22;;;;;;;4.80;3.80;;;20.70;48.10;;;;;;5019608;28;20200;-54
2023/05/29 02:54:51;;;;;;;4.50;3.50;;;20.70;48.10;;;;;;5019713;28;20208;-54
2023/05/29 02:57:18;;;;;;;5.22;4.03;;;20.70;48.20;;;;;;5001901;28;20230;-54
2023/05/29 02:59:45;;;;;;;6.25;3.92;;;20.70;48.00;;;;;;5001870;28;20727;-54
2023/05/29 03:02:12;;;;;;;4.65;3.85;;;20.70;48.10;;;;;;5001829;28;20220;-54
2023/05/29 03:04:39;;;;;;;4.22;3.75;;;20.70;48.10;;;;;;5019460;28;20220;-54
2023/05/29 03:07:09;;;;;;;4.60;3.30;;;20.60;48.10;;;;;;5019368;28;20209;-53
2023/05/29 03:09:36;;;;;;;4.18;3.60;;;20.60;48.10;;;;;;5019440;28;20251;-53
2023/05/29 03:12:05;;;;;;;4.25;3.70;;;20.60;48.30;;;;;;5001761;28;20223;-53
2023/05/29 03:14:35;;;;;;;4.38;3.65;;;20.70;48.60;;;;;;5001977;28;20216;-53
2023/05/29 03:17:06;;;;;;;3.72;3.30;;;20.60;48.70;;;;;;5001917;28;20188;-53
2023/05/29 03:19:33;;;;;;;4.05;3.60;;;20.60;48.90;;;;;;5001715;28;20743;-53
2023/05/29 03:22:00;;;;;;;4.47;4.05;;;20.60;48.70;;;;;;5001691;28;20584;-53
2023/05/29 03:24:29;;;;;;;3.88;3.47;;;20.60;48.70;;;;;;5001776;28;20267;-53
2023/05/29 03:26:57;;;;;;;4.03;3.40;;;20.60;49.00;;;;;;5019477;28;20615;-53
2023/05/29 03:29:26;;;;;;;4.78;3.67;;;20.70;49.00;;;;;;5001687;28;20516;-53
2023/05/29 03:31:55;;;;;;;4.20;3.80;;;20.70;48.70;;;;;;5002146;28;20251;-53
2023/05/29 03:34:27;;;;;;;3.97;3.63;;;20.70;48.90;;;;;;5001656;28;20775;-53
2023/05/29 03:36:57;;;;;;;3.83;3.50;;;20.70;48.70;;;;;;5002018;28;20552;-53
2023/05/29 03:39:26;;;;;;;3.72;3.42;;;20.80;48.80;;;;;;5001528;28;20192;-53
2023/05/29 03:41:53;;;;;;;3.90;3.50;;;20.80;48.50;;;;;;5001505;28;20196;-53
2023/05/29 03:44:20;;;;;;;4.65;3.72;;;20.80;48.60;;;;;;5001510;28;20228;-53
2023/05/29 03:46:49;;;;;;;3.50;3.20;;;20.80;49.10;;;;;;5019349;28;20205;-53
2023/05/29 03:49:17;;;;;;;4.43;3.60;;;20.90;49.10;;;;;;5019257;28;20275;-53
2023/05/29 03:51:44;;;;;;;4.45;3.60;;;20.90;48.40;;;;;;5001681;28;20287;-53
2023/05/29 03:54:12;;;;;;;4.18;3.60;;;20.90;48.40;;;;;;5004631;28;20247;-53
2023/05/29 03:56:39;;;;;;;3.92;3.53;;;20.90;48.30;;;;;;5003098;28;20188;-53
2023/05/29 03:59:09;;;;;;;3.47;3.17;;;20.90;48.20;;;;;;5000305;28;20201;-53
2023/05/29 04:01:37;;;;;;;5.63;3.72;;;20.90;48.30;;;;;;4998460;28;20205;-53
2023/05/29 04:04:05;;;;;;;3.97;3.58;;;20.90;48.20;;;;;;5015902;28;20184;-53
2023/05/29 04:06:33;;;;;;;4.32;3.40;;;21.00;48.20;;;;;;4998207;28;20243;-54
2023/05/29 04:09:00;;;;;;;3.53;3.20;;;21.00;48.20;;;;;;5014231;22;20231;-77
2023/05/29 04:11:29;;;;;;;4.32;3.63;;;21.00;48.10;;;;;;5001425;28;20216;-77
2023/05/29 04:13:57;;;;;;;4.20;3.60;;;21.00;48.00;;;;;;5004051;28;20203;-77
2023/05/29 04:16:24;;;;;;;4.35;3.60;;;21.00;48.10;;;;;;5023203;28;20197;-77
2023/05/29 04:18:51;;;;;;;6.78;3.78;;;20.90;47.90;;;;;;5005227;28;20228;-77
2023/05/29 04:21:21;;;;;;;4.20;3.80;;;21.00;48.00;;;;;;5000274;28;20223;-77
2023/05/29 04:23:48;;;;;;;4.15;3.47;;;21.00;48.00;;;;;;5000227;28;20289;-77
2023/05/29 04:26:16;;;;;;;4.50;3.50;;;21.00;48.10;;;;;;5000313;28;20217;-78
2023/05/29 04:28:43;;;;;;;4.45;3.88;;;20.90;47.90;;;;;;5001389;28;20207;-78
2023/05/29 04:31:14;;;;;;;4.05;3.65;;;21.00;48.10;;;;;;5000393;28;20592;-78
2023/05/29 04:33:45;;;;;;;4.05;3.28;;;21.00;48.00;;;;;;5000410;28;20181;-78
2023/05/29 04:36:13;;;;;;;5.90;3.92;;;21.00;48.10;;;;;;5000450;28;20193;-78
2023/05/29 04:38:44;;;;;;;4.07;3.55;;;21.00;48.00;;;;;;4984293;28;20193;-78
2023/05/29 04:41:12;;;;;;;3.92;3.53;;;21.00;48.00;;;;;;4998933;28;20303;-78
2023/05/29 04:43:40;;;;;;;3.63;3.33;;;21.00;48.00;;;;;;4998871;28;20303;-78
2023/05/29 04:46:12;;;;;;;4.18;3.67;;;21.10;48.00;;;;;;4998932;28;20204;-78
2023/05/29 04:48:40;;;;;;;4.40;3.50;;;21.20;47.90;;;;;;4999070;28;20259;-78
2023/05/29 04:51:10;;;;;;;4.07;3.58;;;21.40;47.60;;;;;;4999224;28;20197;-78
2023/05/29 04:53:37;;;;;;;3.60;3.25;;;21.50;47.30;;;;;;4998823;28;20727;-78
2023/05/29 04:56:07;;;;;;;5.97;3.40;;;21.70;47.10;;;;;;4999124;28;20197;-78
2023/05/29 04:58:35;;;;;;;5.70;3.58;;;21.80;47.10;;;;;;4999787;28;20744;-79
2023/05/29 05:01:04;;;;;;;4.18;3.78;;;21.90;46.80;;;;;;4999520;28;20578;-79
2023/05/29 05:03:34;;;;;;;3.58;3.28;;;22.00;46.50;;;;;;4999980;28;20216;-79
2023/05/29 05:06:02;;;;;;;3.83;3.42;;;22.10;46.30;;;;;;4999937;28;20532;-79
2023/05/29 05:08:30;;;;;;;3.58;3.28;;;22.30;46.20;;;;;;4999281;28;20228;-79
2023/05/29 05:10:57;;;;;;;4.20;3.25;;;22.40;46.10;;;;;;4982826;28;20613;-79
2023/05/29 05:13:26;;;;;;;3.22;2.92;;;22.50;45.90;;;;;;4999134;28;20205;-79
2023/05/29 05:15:54;;;;;;;4.10;3.40;;;22.60;45.80;;;;;;4983391;28;20247;-79
2023/05/29 05:18:20;;;;;;;4.25;3.60;;;22.70;45.50;;;;;;4999458;28;20652;-79
2023/05/29 05:20:57;;;;;;;3.85;3.22;;;22.80;45.40;;;;;;4999493;28;20197;-78
2023/05/29 05:23:24;;;;;;;4.30;3.72;;;23.00;45.20;;;;;;4999240;28;20201;-79
2023/05/29 05:25:52;;;;;;;4.70;3.28;;;23.00;45.10;;;;;;4984453;28;20207;-79
2023/05/29 05:28:19;;;;;;;4.10;3.17;;;23.10;45.00;;;;;;4985649;28;20220;-80
2023/05/29 05:30:48;;;;;;;3.95;3.35;;;23.20;44.80;;;;;;4999508;28;20266;-79
2023/05/29 05:33:15;;;;;;;3.65;3.30;;;23.30;44.70;;;;;;4999613;28;20193;-78
2023/05/29 05:35:43;;;;;;;3.80;3.40;;;23.50;44.60;;;;;;4999248;28;20193;-79
2023/05/29 05:38:10;;;;;;;4.50;3.60;;;23.50;44.30;;;;;;4998646;28;20192;-79
2023/05/29 05:40:37;;;;;;;4.07;3.58;;;23.60;44.20;;;;;;4998194;28;20196;-79
2023/05/29 05:43:14;;;;;;;5.35;3.78;;;23.70;44.20;;;;;;4999352;28;20540;-79
2023/05/29 05:46:06;;;;;;;4.90;3.88;;;23.80;44.00;;;;;;5013502;28;20204;-79
2023/05/29 05:48:35;;;;;;;4.57;3.50;;;23.90;43.70;;;;;;4999296;28;20271;-79
2023/05/29 05:51:02;;;;;;;4.70;3.70;;;24.00;43.50;;;;;;4983279;28;20246;-79
2023/05/29 05:53:30;;;;;;;4.07;3.67;;;24.00;43.30;;;;;;4999952;28;20200;-80
2023/05/29 05:55:58;;;;;;;4.10;3.35;;;24.20;43.30;;;;;;4998809;28;20227;-79
2023/05/29 05:58:26;;;;;;;4.05;3.67;;;24.20;43.10;;;;;;4982720;28;20264;-79
2023/05/29 06:00:54;;;;;;;5.15;3.78;;;24.30;43.00;;;;;;4981884;28;20204;-79
2023/05/29 06:03:22;;;;;;;3.90;3.50;;;24.40;42.90;;;;;;4998072;28;20224;-79
2023/05/29 06:05:57;;;;;;;4.57;3.65;;;24.50;42.80;;;;;;4998297;28;20199;-79
2023/05/29 06:08:24;;;;;;;3.60;3.28;;;24.50;42.60;;;;;;4997530;28;20217;-78
2023/05/29 06:10:53;;;;;;;3.85;3.15;;;24.60;42.50;;;;;;4996933;28;20201;-78
2023/05/29 06:13:20;;;;;;;3.92;3.53;;;24.70;42.40;;;;;;4996978;28;20228;-78
2023/05/29 06:15:55;;;;;;;3.80;3.40;;;24.80;42.30;;;;;;4997404;28;20249;-78
2023/05/29 06:18:25;;;;;;;3.75;3.25;;;24.90;42.20;;;;;;4997369;28;20197;-78
2023/05/29 06:20:53;;;;;;;4.15;3.45;;;24.90;42.00;;;;;;4983314;28;20236;-78
2023/05/29 06:23:20;;;;;;;3.35;3.05;;;25.00;41.90;;;;;;4998920;28;20250;-79
2023/05/29 06:25:50;;;;;;;3.50;3.20;;;25.10;41.80;;;;;;4999790;28;20201;-79
2023/05/29 06:28:18;;;;;;;3.67;3.33;;;25.10;41.60;;;;;;5000369;28;20299;-79
2023/05/29 06:30:45;;;;;;;3.50;3.17;;;25.20;41.40;;;;;;4986499;28;20200;-79
2023/05/29 06:33:13;;;;;;;3.30;3.00;;;25.30;41.30;;;;;;4996986;28;20242;-79
2023/05/29 06:35:43;;;;;;;3.45;3.15;;;25.40;41.10;;;;;;4997617;28;20550;-79
2023/05/29 06:38:09;;;;;;;3.90;3.30;;;25.40;40.90;;;;;;4997202;28;20564;-79
2023/05/29 06:40:37;;;;;;;3.40;3.10;;;25.50;40.90;;;;;;4998316;28;20201;-79
2023/05/29 06:43:04;;;;;;;3.42;3.13;;;25.60;40.80;;;;;;4998279;28;20239;-79
2023/05/29 06:45:39;;;;;;;3.20;2.90;;;25.60;40.60;;;;;;4999003;28;20196;-79
2023/05/29 06:48:07;;;;;;;3.47;3.10;;;25.70;41.20;;;;;;4998137;28;20217;-79
2023/05/29 06:50:35;;;;;;;3.05;2.75;;;25.70;40.40;;;;;;4998858;28;20259;-80
2023/05/29 06:53:39;;;;;;;3.40;3.10;;;25.80;40.30;;;;;;4994979;28;20197;-80
2023/05/29 06:56:07;;;;;;;3.70;3.00;;;25.90;40.20;;;;;;4995306;28;20214;-80
2023/05/29 06:58:35;;;;;;;2.90;2.70;;;25.90;40.00;;;;;;4998600;28;20328;-80
2023/05/29 07:01:02;;;;;;;3.60;3.30;;;25.90;39.90;;;;;;4983122;28;20227;-80
2023/05/29 07:03:52;;;;;;;3.40;3.10;;;26.00;39.80;;;;;;5017316;28;20196;-80
2023/05/29 07:06:19;;;;;;;3.40;3.10;;;26.10;39.80;;;;;;4998645;28;20189;-80
2023/05/29 07:08:48;;;;;;;3.33;3.03;;;26.10;39.60;;;;;;4998457;28;20235;-80
2023/05/29 07:11:15;;;;;;;3.08;2.80;;;26.10;39.60;;;;;;4998517;28;20303;-80
2023/05/29 07:13:42;;;;;;;4.05;3.20;;;26.20;39.50;;;;;;4982748;28;20196;-80
2023/05/29 07:16:09;;;;;;;3.20;2.90;;;26.20;39.90;;;;;;4998463;28;20582;-80
2023/05/29 07:18:37;;;;;;;3.35;3.05;;;26.30;39.40;;;;;;4997867;28;20726;-79
2023/05/29 07:21:04;;;;;;;3.60;3.17;;;26.30;39.20;;;;;;4982177;28;20197;-79
2023/05/29 07:23:31;;;;;;;3.30;3.00;;;26.40;39.30;;;;;;4998861;28;20284;-80
2023/05/29 07:26:00;;;;;;;3.13;2.83;;;26.40;39.10;;;;;;4999775;28;20224;-80
2023/05/29 07:28:30;;;;;;;3.35;3.05;;;26.40;39.00;;;;;;4999042;28;20280;-80
2023/05/29 07:30:57;;;;;;;3.78;2.88;;;26.40;38.90;;;;;;4998770;28;20196;-80
2023/05/29 07:33:24;;;;;;;3.30;3.00;;;26.50;38.90;;;;;;5003736;28;20181;-80
2023/05/29 07:35:54;;;;;;;3.22;2.90;;;26.50;38.80;;;;;;5023824;28;20265;-79
2023/05/29 07:38:22;;;;;;;3.30;3.00;;;26.60;38.70;;;;;;5008197;28;20283;-79
2023/05/29 07:40:49;;;;;;;3.08;2.88;;;26.60;38.70;;;;;;5002181;28;20200;-79
2023/05/29 07:43:28;;;;;;;3.03;2.83;;;26.60;38.60;;;;;;5001784;28;20570;-79
2023/05/29 07:45:59;;;;;;;3.22;2.92;;;26.60;38.50;;;;;;5006425;28;20204;-79
2023/05/29 07:48:26;;;;;;;3.00;2.80;;;26.70;38.60;;;;;;5007661;28;20217;-79
2023/05/29 07:50:53;;;;;;;3.40;3.10;;;26.70;38.50;;;;;;5010854;28;20198;-79
2023/05/29 07:53:21;;;;;;;3.53;3.22;;;26.70;38.40;;;;;;5008755;28;20196;-79
2023/05/29 07:55:48;;;;;;;3.42;3.13;;;26.80;38.40;;;;;;5004531;28;20283;-79
2023/05/29 07:58:16;;;;;;;3.13;2.72;;;26.80;38.40;;;;;;5003026;28;20196;-80
2023/05/29 08:00:46;;;;;;;3.33;3.03;;;26.80;38.30;;;;;;5003360;28;20651;-80
2023/05/29 08:03:15;;;;;;;3.03;2.80;;;26.90;38.20;;;;;;5003970;28;20683;-79
2023/05/29 08:06:14;;;;;;;2.90;2.70;;;26.90;38.20;;;;;;5004454;28;20196;-79
2023/05/29 08:08:42;;;;;;;3.17;2.88;;;27.00;38.20;;;;;;4988548;28;20224;-79
2023/05/29 08:11:10;;;;;;;3.35;3.05;;;27.00;38.00;;;;;;5006163;28;20248;-79
2023/05/29 08:13:37;;;;;;;5.20;3.70;;;26.90;37.60;;;;;;5006419;28;20196;-79
2023/05/29 08:16:06;;;;;;;4.90;3.97;;;26.90;37.20;;;;;;5004463;28;20200;-79
2023/05/29 08:18:34;;;;;;;5.55;3.90;;;26.90;37.10;;;;;;5001410;28;20196;-80
2023/05/29 08:21:00;;;;;;;5.30;3.88;;;26.90;36.80;;;;;;5000289;28;20268;-79
2023/05/29 08:23:28;;;;;;;5.32;4.22;;;26.90;37.10;;;;;;5000215;28;20330;-79
2023/05/29 08:25:55;;;;;;;4.38;3.97;;;26.90;36.90;;;;;;5000067;28;20207;-79
2023/05/29 08:28:22;;;;;;;5.13;4.10;;;26.90;36.70;;;;;;5000670;28;20216;-80
2023/05/29 08:30:49;;;;;;;4.57;4.18;;;26.90;36.80;;;;;;4999674;28;20196;-80
2023/05/29 08:33:18;;;;;;;4.90;4.40;;;26.80;36.60;;;;;;5000073;28;20236;-80
2023/05/29 08:35:45;;;;;;;6.55;4.53;;;26.80;36.50;;;;;;4984525;28;20192;-81
2023/05/29 08:38:12;;;;;;;5.97;4.50;;;26.80;36.70;;;;;;4984211;28;20501;-80
2023/05/29 08:40:39;;;;;;;5.60;4.30;;;26.80;37.20;;;;;;5001363;28;20197;-80
2023/05/29 08:43:09;;;;;;;4.88;4.20;;;26.80;37.40;;;;;;4984532;28;20243;-81
2023/05/29 08:45:36;;;;;;;8.90;5.82;;;26.80;38.00;;;;;;4999924;28;20201;-80
2023/05/29 08:48:04;;;;;;;7.65;5.78;;;26.90;36.90;;;;;;4999884;28;20222;-80
2023/05/29 08:50:32;;;;;;;14.77;8.77;;;26.80;37.10;;;;;;5000035;28;20203;-80
2023/05/29 08:52:59;;;;;;;8.20;5.85;;;26.80;37.80;;;;;;5000296;28;20243;-80
2023/05/29 08:55:27;;;;;;;10.45;5.40;;;26.80;37.40;;;;;;4999787;28;20192;-81
2023/05/29 08:57:54;;;;;;;7.30;5.55;;;26.80;37.90;;;;;;5000056;28;20211;-81
2023/05/29 09:00:22;;;;;;;6.28;4.97;;;26.80;37.50;;;;;;4984041;28;20208;-81
2023/05/29 09:02:49;;;;;;;6.88;5.25;;;26.80;37.80;;;;;;5000260;28;20310;-80
2023/05/29 09:05:16;;;;;;;7.22;5.28;;;26.80;38.80;;;;;;4999999;28;20196;-80
2023/05/29 09:07:46;;;;;;;7.40;4.85;;;26.80;38.50;;;;;;4999768;28;20220;-80
2023/05/29 09:10:15;;;;;;;4.57;4.15;;;26.80;38.20;;;;;;4999552;28;20255;-80
2023/05/29 09:12:42;;;;;;;4.90;4.40;;;26.90;37.60;;;;;;4999421;28;20228;-80
2023/05/29 09:15:18;;;;;;;5.22;4.28;;;26.90;38.10;;;;;;5000060;28;20650;-80
2023/05/29 09:17:45;;;;;;;6.28;4.18;;;26.90;38.40;;;;;;5000644;28;20194;-80
2023/05/29 09:20:18;;;;;;;7.15;4.65;;;26.90;37.70;;;;;;4983522;28;20206;-80
2023/05/29 09:22:53;;;;;;;6.25;4.47;;;26.90;38.10;;;;;;4999797;28;20227;-80
2023/05/29 09:25:22;;;;;;;5.40;4.53;;;26.90;38.30;;;;;;4999122;28;20192;-80
2023/05/29 09:27:51;;;;;;;7.80;4.82;;;26.90;38.10;;;;;;4999760;28;20270;-80
2023/05/29 09:30:32;;;;;;;5.63;4.45;;;26.90;38.10;;;;;;5016554;28;20254;-80
2023/05/29 09:33:00;;;;;;;5.75;4.60;;;26.90;38.20;;;;;;4999030;28;20227;-79
2023/05/29 09:35:27;;;;;;;5.47;4.30;;;26.90;38.60;;;;;;4999242;28;20266;-80
2023/05/29 09:37:56;;;;;;;4.95;4.38;;;26.80;38.80;;;;;;4998889;28;20196;-80
2023/05/29 09:40:23;;;;;;;5.88;4.30;;;26.80;38.20;;;;;;4998477;28;20254;-80
2023/05/29 09:42:50;;;;;;;6.45;4.43;;;26.80;38.40;;;;;;4998574;28;20220;-80
2023/05/29 09:45:19;;;;;;;7.00;4.90;;;26.90;38.70;;;;;;4998538;28;20976;-80
2023/05/29 09:47:46;;;;;;;6.57;4.63;;;26.80;38.40;;;;;;4999137;28;20211;-80
2023/05/29 09:50:20;;;;;;;4.72;4.32;;;26.80;38.20;;;;;;4983101;28;20191;-80
2023/05/29 09:52:47;;;;;;;5.50;4.38;;;26.70;38.40;;;;;;4998133;28;20270;-80
2023/05/29 09:55:17;;;;;;;5.47;4.13;;;26.70;38.40;;;;;;4998160;28;20203;-80
2023/05/29 09:57:45;;;;;;;6.07;4.80;;;26.80;38.70;;;;;;4997280;28;20227;-81
2023/05/29 10:00:13;;;;;;;4.78;4.07;;;26.80;38.70;;;;;;4998056;28;20207;-81
2023/05/29 10:02:41;;;;;;;6.10;4.20;;;26.80;38.70;;;;;;4997562;28;20223;-80
2023/05/29 10:05:09;;;;;;;6.63;4.35;;;26.80;38.60;;;;;;4997701;28;20200;-80
2023/05/29 10:07:37;;;;;;;5.38;4.22;;;26.80;38.70;;;;;;4997470;28;20246;-80
2023/05/29 10:10:05;;;;;;;5.40;4.40;;;26.80;38.60;;;;;;5015340;28;20196;-80
2023/05/29 10:12:36;;;;;;;7.28;4.70;;;26.80;38.70;;;;;;4997806;28;20230;-80
2023/05/29 10:15:04;;;;;;;6.55;4.18;;;26.80;38.70;;;;;;4997702;28;20626;-80
2023/05/29 10:17:33;;;;;;;6.57;4.50;;;26.80;38.20;;;;;;4997672;28;20597;-80
2023/05/29 10:20:02;;;;;;;4.80;4.15;;;26.80;37.60;;;;;;4999851;28;20218;-80
2023/05/29 10:22:29;;;;;;;5.30;4.10;;;26.80;38.10;;;;;;4997717;28;20224;-80
2023/05/29 10:24:56;;;;;;;4.90;4.25;;;26.70;38.20;;;;;;4997976;28;20243;-80
2023/05/29 10:27:23;;;;;;;5.80;4.35;;;26.70;38.20;;;;;;4998239;28;20603;-79
2023/05/29 10:29:54;;;;;;;7.07;4.50;;;26.80;38.50;;;;;;4997789;28;20598;-80
2023/05/29 10:32:22;;;;;;;6.65;4.70;;;26.70;38.70;;;;;;4998291;28;20220;-80
2023/05/29 10:34:56;;;;;;;4.97;4.20;;;26.70;38.90;;;;;;4997323;28;20313;-80
2023/05/29 10:37:36;;;;;;;6.72;4.25;;;26.70;38.80;;;;;;4997911;28;20199;-81
2023/05/29 10:40:08;;;;;;;5.20;4.57;;;26.60;38.80;;;;;;4999202;28;20564;-81
2023/05/29 10:42:45;;;;;;;6.63;4.63;;;26.60;38.80;;;;;;4998069;28;20223;-81
2023/05/29 10:45:41;;;;;;;6.25;4.50;;;26.60;37.70;;;;;;4998284;28;20203;-81
2023/05/29 10:48:40;;;;;;;6.50;4.13;;;26.60;37.30;;;;;;4999158;28;20710;-81
2023/05/29 10:51:08;;;;;;;4.65;3.78;;;26.60;37.60;;;;;;4982534;28;20259;-81
2023/05/29 10:53:39;;;;;;;4.30;3.85;;;26.50;37.20;;;;;;5021334;28;20180;-81
2023/05/29 10:56:10;;;;;;;5.38;4.00;;;26.50;37.20;;;;;;5019464;28;20195;-80
2023/05/29 10:58:38;;;;;;;4.78;3.90;;;26.50;37.40;;;;;;4982661;28;20729;-80
2023/05/29 11:01:06;;;;;;;5.25;4.05;;;26.50;37.40;;;;;;4982275;28;20635;-80
2023/05/29 11:03:33;;;;;;;5.40;3.80;;;26.40;37.60;;;;;;4998307;28;20204;-80
2023/05/29 11:06:01;;;;;;;4.82;3.67;;;26.40;37.70;;;;;;4997959;28;20196;-80
2023/05/29 11:08:34;;;;;;;4.35;3.80;;;26.40;37.50;;;;;;4997911;28;20585;-80
2023/05/29 11:11:01;;;;;;;5.15;3.72;;;26.40;36.80;;;;;;5002219;28;20291;-80
2023/05/29 11:13:34;;;;;;;6.22;3.85;;;26.40;35.90;;;;;;5002081;28;20196;-80
2023/05/29 11:16:13;;;;;;;7.00;3.70;;;26.40;35.50;;;;;;5019859;28;20172;-80
2023/05/29 11:18:41;;;;;;;5.05;3.88;;;26.40;35.60;;;;;;5002561;28;20517;-80
2023/05/29 11:21:16;;;;;;;5.28;3.80;;;26.40;36.00;;;;;;5000993;28;20678;-80
2023/05/29 11:23:43;;;;;;;4.70;3.78;;;26.40;36.00;;;;;;5001098;28;20250;-80
2023/05/29 11:26:10;;;;;;;5.25;3.80;;;26.40;35.90;;;;;;5002070;28;20283;-80
2023/05/29 11:28:37;;;;;;;5.03;3.83;;;26.40;36.10;;;;;;5003112;28;20220;-82
2023/05/29 11:31:09;;;;;;;4.40;3.60;;;26.40;36.30;;;;;;5003144;28;20639;-81
2023/05/29 11:33:39;;;;;;;6.65;3.63;;;26.40;35.90;;;;;;5002389;28;20189;-80
2023/05/29 11:36:07;;;;;;;5.65;3.83;;;26.40;35.90;;;;;;5003326;28;20200;-80
2023/05/29 11:38:34;;;;;;;4.90;3.55;;;26.40;35.80;;;;;;5003569;28;20250;-79
2023/05/29 11:41:03;;;;;;;3.70;3.40;;;26.40;35.90;;;;;;5004343;28;20207;-79
2023/05/29 11:43:30;;;;;;;4.57;3.70;;;26.40;35.70;;;;;;5005234;28;20218;-79
2023/05/29 11:45:57;;;;;;;5.28;3.58;;;26.30;36.10;;;;;;5005077;28;20232;-80
2023/05/29 11:48:25;;;;;;;6.25;3.63;;;26.30;35.70;;;;;;5007062;28;20208;-81
2023/05/29 11:50:52;;;;;;;4.20;3.65;;;26.30;35.60;;;;;;5005206;28;20192;-80
2023/05/29 11:53:19;;;;;;;5.68;3.55;;;26.20;35.40;;;;;;5002443;28;20204;-80
2023/05/29 11:55:46;;;;;;;5.75;3.90;;;26.30;34.90;;;;;;5003267;28;20200;-80
2023/05/29 11:58:14;;;;;;;3.72;3.42;;;26.30;34.80;;;;;;5002183;28;20244;-80
2023/05/29 12:00:42;;;;;;;3.90;3.50;;;26.20;34.30;;;;;;5003014;28;20210;-79
2023/05/29 12:03:10;;;;;;;3.88;3.33;;;26.20;34.20;;;;;;5002069;28;20223;-80
2023/05/29 12:05:48;;;;;;;3.72;3.28;;;26.20;34.40;;;;;;5001698;28;20199;-80
2023/05/29 12:08:15;;;;;;;5.00;3.70;;;26.10;34.70;;;;;;5000466;28;20611;-80
2023/05/29 12:10:48;;;;;;;5.03;3.30;;;26.10;34.50;;;;;;5001409;28;20208;-80
2023/05/29 12:20:03;;;;;;;4.35;3.30;;;26.10;35.10;;;;;;5017588;28;20319;-78
2023/05/29 12:22:38;;;;;;;4.53;3.13;;;26.10;35.30;;;;;;4999028;28;20201;-75
2023/05/29 12:25:07;;;;;;;3.70;3.33;;;26.00;35.50;;;;;;4999936;28;20310;-75
2023/05/29 12:27:37;;;;;;;3.38;3.08;;;26.00;35.70;;;;;;4999454;28;20726;-75
2023/05/29 12:30:05;;;;;;;3.90;3.30;;;26.00;35.80;;;;;;4999541;28;20221;-77
2023/05/29 12:32:36;;;;;;;4.18;3.40;;;26.00;36.00;;;;;;5000743;28;20205;-78
2023/05/29 12:35:12;;;;;;;3.63;3.22;;;26.00;36.20;;;;;;5000385;28;20211;-77
2023/05/29 12:37:44;;;;;;;4.35;3.70;;;26.00;36.40;;;;;;5001085;28;20233;-77
2023/05/29 12:40:15;;;;;;;4.00;3.25;;;26.00;36.60;;;;;;5001573;28;20213;-78
2023/05/29 12:42:42;;;;;;;5.07;3.40;;;25.90;36.80;;;;;;5000948;28;20591;-77
2023/05/29 12:45:10;;;;;;;4.53;3.35;;;25.90;37.00;;;;;;4999671;28;20609;-77
2023/05/29 12:47:37;;;;;;;4.18;3.30;;;25.90;37.10;;;;;;4999858;28;20201;-78
2023/05/29 12:50:21;;;;;;;3.40;3.10;;;25.90;37.30;;;;;;4999849;28;20208;-77
2023/05/29 12:52:55;;;;;;;4.15;3.35;;;25.80;37.40;;;;;;5000009;28;20193;-77
2023/05/29 12:55:23;;;;;;;3.90;3.40;;;25.80;37.60;;;;;;5002502;28;20304;-77
2023/05/29 12:57:49;;;;;;;3.90;3.22;;;25.80;37.60;;;;;;5004269;28;20534;-77
2023/05/29 13:00:18;;;;;;;4.25;3.30;;;25.80;37.80;;;;;;5000596;28;20200;-77
2023/05/29 13:02:46;;;;;;;3.90;3.42;;;25.70;37.80;;;;;;4999390;28;20201;-78
2023/05/29 13:05:15;;;;;;;4.00;3.50;;;25.70;38.00;;;;;;5001132;28;20291;-78